createdAt,value
2018-10-06T00:03:50.794Z,3.59
2018-10-06T00:09:41.721Z,3.58
2018-10-06T00:15:32.609Z,4.24
2018-10-06T00:21:23.466Z,3.34
2018-10-06T00:27:14.385Z,3.76
2018-10-06T00:33:05.257Z,3.5
2018-10-06T00:38:56.128Z,4.11
2018-10-06T00:44:47.042Z,3.8
2018-10-06T00:50:37.920Z,3.76
2018-10-06T00:56:28.862Z,4.39
2018-10-06T01:02:19.701Z,3.73
2018-10-06T01:08:10.602Z,3.78
2018-10-06T01:14:01.488Z,3.93
2018-10-06T01:19:52.369Z,3.84
2018-10-06T01:25:43.262Z,4.16
2018-10-06T01:31:34.144Z,5.64
2018-10-06T01:37:25.028Z,3.69
2018-10-06T01:43:15.910Z,3.92
2018-10-06T01:49:06.803Z,3.59
2018-10-06T01:54:57.697Z,4.27
2018-10-06T02:00:48.551Z,3.81
2018-10-06T02:06:39.459Z,5.26
2018-10-06T02:12:30.423Z,4.02
2018-10-06T02:18:21.212Z,3.67
2018-10-06T02:24:12.092Z,4.66
2018-10-06T02:30:03.071Z,5.1
2018-10-06T02:35:53.870Z,4.24
2018-10-06T02:41:44.800Z,4.31
2018-10-06T02:47:35.670Z,4.33
2018-10-06T02:53:26.555Z,4.36
2018-10-06T02:59:17.502Z,4.52
2018-10-06T03:05:08.315Z,3.86
2018-10-06T03:10:59.212Z,4.07
2018-10-06T03:16:50.123Z,4.02
2018-10-06T03:22:40.972Z,3.96
2018-10-06T03:28:31.861Z,4.03
2018-10-06T03:34:22.752Z,3.96
2018-10-06T03:40:13.648Z,4.3
2018-10-06T03:46:04.534Z,4.48
2018-10-06T03:51:55.444Z,4.89
2018-10-06T03:57:46.338Z,5.29
2018-10-06T04:03:37.162Z,5.05
2018-10-06T04:09:28.053Z,4.74
2018-10-06T04:15:18.976Z,4.85
2018-10-06T04:21:09.862Z,6.02
2018-10-06T04:27:00.749Z,5.52
2018-10-06T04:32:51.611Z,5.72
2018-10-06T04:38:42.490Z,7.59
2018-10-06T04:44:33.435Z,7.84
2018-10-06T04:50:24.271Z,12.56
2018-10-06T04:56:15.232Z,6.12
2018-10-06T05:02:06.061Z,6.7
2018-10-06T05:07:56.970Z,4.55
2018-10-06T05:13:47.852Z,4.88
2018-10-06T05:19:38.761Z,5.18
2018-10-06T05:25:29.659Z,5.51
2018-10-06T05:31:20.545Z,7.43
2018-10-06T05:37:11.422Z,7.31
2018-10-06T05:43:02.317Z,8.4
2018-10-06T05:48:53.170Z,8.35
2018-10-06T05:54:44.051Z,8.04
2018-10-06T06:00:34.995Z,8.39
2018-10-06T06:06:25.895Z,7.78
2018-10-06T06:12:16.808Z,6.64
2018-10-06T06:18:07.657Z,6.21
2018-10-06T06:23:58.559Z,5.95
2018-10-06T06:29:49.512Z,13.11
2018-10-06T06:35:40.315Z,12.37
2018-10-06T06:41:31.231Z,7.06
2018-10-06T06:47:22.086Z,17.86
2018-10-06T06:53:12.974Z,11.22
2018-10-06T06:59:03.842Z,13.8
2018-10-06T07:04:54.778Z,8.07
2018-10-06T07:10:45.678Z,8.69
2018-10-06T07:16:36.508Z,14.07
2018-10-06T07:22:27.419Z,9.02
2018-10-06T07:28:18.357Z,8.46
2018-10-06T07:34:09.153Z,7.94
2018-10-06T07:40:00.076Z,5.5
2018-10-06T07:45:50.977Z,7.18
2018-10-06T07:51:41.884Z,7.31
2018-10-06T07:57:32.754Z,7.64
2018-10-06T08:03:23.630Z,12.16
2018-10-06T08:09:14.595Z,15.69
2018-10-06T08:15:05.443Z,11.11
2018-10-06T08:21:00.374Z,14.5
2018-10-06T08:26:47.273Z,11.46
2018-10-06T08:32:38.028Z,11.32
2018-10-06T08:38:28.936Z,11
2018-10-06T08:44:24.025Z,10.34
2018-10-06T08:50:10.744Z,7.76
2018-10-06T08:56:01.681Z,13
2018-10-06T09:01:52.506Z,10.5
2018-10-06T09:07:43.412Z,13.34
2018-10-06T09:13:34.298Z,15.4
2018-10-06T09:19:25.156Z,14.03
2018-10-06T09:25:16.064Z,11.15
2018-10-06T09:31:06.931Z,11.99
2018-10-06T09:36:57.873Z,13.64
2018-10-06T09:42:48.946Z,14.95
2018-10-06T09:48:39.633Z,15.05
2018-10-06T09:54:30.604Z,15.87
2018-10-06T10:00:21.435Z,14.36
2018-10-06T10:06:12.312Z,11.94
2018-10-06T10:12:03.201Z,11.63
2018-10-06T10:17:54.173Z,11.44
2018-10-06T10:23:45.040Z,9.73
2018-10-06T10:29:35.872Z,8.23
2018-10-06T10:35:26.744Z,8.16
2018-10-06T10:41:17.657Z,7.61
2018-10-06T10:47:08.619Z,7.4
2018-10-06T10:52:59.427Z,7.46
2018-10-06T10:58:50.365Z,7.74
2018-10-06T11:04:41.263Z,8.61
2018-10-06T11:10:32.119Z,9.15
2018-10-06T11:16:23.006Z,8.39
2018-10-06T11:22:13.887Z,9.64
2018-10-06T11:28:04.841Z,9
2018-10-06T11:33:55.736Z,9.1
2018-10-06T11:39:46.570Z,9.86
2018-10-06T11:45:37.462Z,9.9
2018-10-06T11:51:28.348Z,9.71
2018-10-06T11:57:19.272Z,9.91
2018-10-06T12:03:10.155Z,9.98
2018-10-06T12:09:01.023Z,11.37
2018-10-06T12:14:51.979Z,10.5
2018-10-06T12:20:42.817Z,11.97
2018-10-06T12:26:33.766Z,9.39
2018-10-06T12:32:24.611Z,9.77
2018-10-06T12:38:15.495Z,10.19
2018-10-06T12:44:06.409Z,10.73
2018-10-06T12:49:57.265Z,9.25
2018-10-06T12:55:48.158Z,8.62
2018-10-06T13:01:39.064Z,8.7
2018-10-06T13:07:29.999Z,8.56
2018-10-06T13:13:20.825Z,7.99
2018-10-06T13:19:11.720Z,8.9
2018-10-06T13:25:02.598Z,9.87
2018-10-06T13:30:53.515Z,10.74
2018-10-06T13:36:44.383Z,11.87
2018-10-06T13:42:35.257Z,11.44
2018-10-06T13:54:17.034Z,13.19
2018-10-06T14:00:08.006Z,14.34
2018-10-06T14:05:58.804Z,13.69
2018-10-06T14:11:49.677Z,12.79
2018-10-06T14:17:40.582Z,13.3
2018-10-06T14:23:31.445Z,12.25
2018-10-06T14:29:22.327Z,12.71
2018-10-06T14:35:13.192Z,14.16
2018-10-06T14:41:04.183Z,11.72
2018-10-06T14:46:54.984Z,13.57
2018-10-06T14:52:45.859Z,9.75
2018-10-06T14:58:36.772Z,9.21
2018-10-06T15:04:27.625Z,10.69
2018-10-06T15:10:18.594Z,11.02
2018-10-06T15:16:09.403Z,10.13
2018-10-06T15:22:00.288Z,11.2
2018-10-06T15:27:51.160Z,11.54
2018-10-06T15:33:42.070Z,12.39
2018-10-06T15:39:32.946Z,9.37
2018-10-06T15:45:23.840Z,9
2018-10-06T15:51:14.719Z,11.82
2018-10-06T15:57:05.589Z,9.2
2018-10-06T16:02:56.506Z,6.57
2018-10-06T16:08:47.354Z,6.53
2018-10-06T16:14:38.208Z,5.87
2018-10-06T16:20:29.154Z,6.55
2018-10-06T16:26:19.984Z,9.46
2018-10-06T16:32:10.869Z,11.12
2018-10-06T16:38:01.741Z,10.96
2018-10-06T16:43:52.642Z,11.07
2018-10-06T16:49:43.590Z,10.65
2018-10-06T16:55:34.423Z,10.83
2018-10-06T17:01:25.283Z,9.79
2018-10-06T17:07:16.209Z,9.33
2018-10-06T17:13:07.078Z,7.68
2018-10-06T17:18:57.957Z,6.34
2018-10-06T17:24:48.813Z,5.9
2018-10-06T17:30:39.710Z,4.64
2018-10-06T17:36:30.599Z,6.64
2018-10-06T17:42:21.466Z,5.61
2018-10-06T17:48:12.351Z,5.64
2018-10-06T17:54:03.224Z,5.58
2018-10-06T17:59:54.118Z,5.29
2018-10-06T18:05:45.021Z,7.22
2018-10-06T18:11:35.868Z,7.18
2018-10-06T18:17:26.793Z,6.72
2018-10-06T18:23:17.664Z,5.81
2018-10-06T18:29:08.556Z,6.82
2018-10-06T18:34:59.463Z,6.76
2018-10-06T18:40:50.272Z,7.98
2018-10-06T18:46:41.197Z,8.54
2018-10-06T18:52:32.052Z,8.46
2018-10-06T18:58:22.928Z,13.44
2018-10-06T19:04:14.021Z,8.25
2018-10-06T19:10:04.924Z,7.65
2018-10-06T19:15:55.626Z,9.45
2018-10-06T19:21:46.465Z,8.48
2018-10-06T19:27:37.377Z,9.82
2018-10-06T19:33:28.251Z,10.6
2018-10-06T19:39:19.093Z,11.34
2018-10-06T19:45:10.029Z,11.21
2018-10-06T19:51:00.908Z,12.21
2018-10-06T19:56:51.777Z,11.93
2018-10-06T20:02:42.647Z,10.99
2018-10-06T20:08:33.580Z,11.53
2018-10-06T20:14:24.431Z,12.23
2018-10-06T20:20:15.308Z,13.47
2018-10-06T20:26:06.165Z,13.41
2018-10-06T20:31:57.096Z,13.27
2018-10-06T20:37:47.986Z,12.99
2018-10-06T20:43:38.794Z,11.11
2018-10-06T20:49:29.685Z,11.12
2018-10-06T20:55:20.582Z,12.01
2018-10-06T21:01:11.464Z,11.96
2018-10-06T21:07:02.341Z,12.13
2018-10-06T21:12:53.230Z,12.48
2018-10-06T21:18:44.142Z,12.58
2018-10-06T21:24:35.020Z,12.2
2018-10-06T21:30:25.893Z,12.96
2018-10-06T21:36:16.754Z,13.57
2018-10-06T21:42:07.723Z,14.06
2018-10-06T21:47:58.575Z,12.23
2018-10-06T21:53:49.439Z,12.55
2018-10-06T21:59:40.321Z,14.19
2018-10-06T22:05:31.204Z,12.26
2018-10-06T22:11:22.067Z,12.81
2018-10-06T22:17:13.048Z,14.2
2018-10-06T22:23:03.828Z,12.54
2018-10-06T22:28:54.697Z,12.08
2018-10-06T22:34:45.580Z,10.72
2018-10-06T22:40:36.442Z,10.6
2018-10-06T22:46:27.330Z,10.97
2018-10-06T22:52:18.227Z,9.25
2018-10-06T22:58:09.121Z,9.68
2018-10-06T23:03:59.968Z,14.89
2018-10-06T23:09:50.885Z,14.91
2018-10-06T23:15:41.774Z,16.02
2018-10-06T23:21:32.617Z,16.54
2018-10-06T23:27:23.557Z,15.35
2018-10-06T23:33:14.374Z,16.3
2018-10-06T23:39:05.370Z,16.1
2018-10-06T23:44:56.152Z,15.06
2018-10-06T23:50:47.021Z,15.23
2018-10-06T23:56:37.917Z,12.65
